sensor_id;sensor_type;location;lat;lon;timestamp;P1;durP1;ratioP1;P2;durP2;ratioP2
73951;SDS011;62304;47.662;18.324;2023-04-24T00:01:33;10.57;;;5.30;;
73951;SDS011;62304;47.662;18.324;2023-04-24T00:04:37;7.07;;;4.30;;
73951;SDS011;62304;47.662;18.324;2023-04-24T00:07:45;10.55;;;5.50;;
73951;SDS011;62304;47.662;18.324;2023-04-24T00:10:48;10.63;;;5.50;;
73951;SDS011;62304;47.662;18.324;2023-04-24T00:13:50;13.00;;;6.20;;
73951;SDS011;62304;47.662;18.324;2023-04-24T00:16:53;10.10;;;5.40;;
73951;SDS011;62304;47.662;18.324;2023-04-24T00:19:56;11.03;;;5.73;;
73951;SDS011;62304;47.662;18.324;2023-04-24T00:23:03;11.68;;;5.97;;
73951;SDS011;62304;47.662;18.324;2023-04-24T00:26:06;11.07;;;5.50;;
73951;SDS011;62304;47.662;18.324;2023-04-24T00:29:09;8.40;;;4.90;;
73951;SDS011;62304;47.662;18.324;2023-04-24T00:32:11;9.93;;;5.28;;
73951;SDS011;62304;47.662;18.324;2023-04-24T00:35:14;9.20;;;5.33;;
73951;SDS011;62304;47.662;18.324;2023-04-24T00:38:17;10.48;;;5.18;;
73951;SDS011;62304;47.662;18.324;2023-04-24T00:41:21;8.95;;;5.32;;
73951;SDS011;62304;47.662;18.324;2023-04-24T00:44:25;10.50;;;4.85;;
73951;SDS011;62304;47.662;18.324;2023-04-24T00:47:29;9.35;;;3.30;;
73951;SDS011;62304;47.662;18.324;2023-04-24T00:50:35;8.77;;;4.87;;
73951;SDS011;62304;47.662;18.324;2023-04-24T00:53:38;9.05;;;4.60;;
73951;SDS011;62304;47.662;18.324;2023-04-24T00:56:42;10.48;;;4.15;;
73951;SDS011;62304;47.662;18.324;2023-04-24T00:59:45;8.75;;;4.57;;
73951;SDS011;62304;47.662;18.324;2023-04-24T01:02:49;8.60;;;4.53;;
73951;SDS011;62304;47.662;18.324;2023-04-24T01:05:54;9.77;;;4.87;;
73951;SDS011;62304;47.662;18.324;2023-04-24T01:08:58;8.88;;;4.70;;
73951;SDS011;62304;47.662;18.324;2023-04-24T01:12:04;9.07;;;4.65;;
73951;SDS011;62304;47.662;18.324;2023-04-24T01:15:07;9.45;;;5.12;;
73951;SDS011;62304;47.662;18.324;2023-04-24T01:18:11;9.10;;;4.10;;
73951;SDS011;62304;47.662;18.324;2023-04-24T01:21:15;9.43;;;4.50;;
73951;SDS011;62304;47.662;18.324;2023-04-24T01:24:19;6.93;;;3.67;;
73951;SDS011;62304;47.662;18.324;2023-04-24T01:27:22;7.10;;;4.30;;
73951;SDS011;62304;47.662;18.324;2023-04-24T01:30:26;10.60;;;4.22;;
73951;SDS011;62304;47.662;18.324;2023-04-24T01:33:29;8.38;;;4.28;;
73951;SDS011;62304;47.662;18.324;2023-04-24T01:36:32;7.40;;;3.60;;
73951;SDS011;62304;47.662;18.324;2023-04-24T01:39:35;8.80;;;4.50;;
73951;SDS011;62304;47.662;18.324;2023-04-24T01:42:38;8.48;;;4.90;;
73951;SDS011;62304;47.662;18.324;2023-04-24T01:45:43;6.75;;;3.85;;
73951;SDS011;62304;47.662;18.324;2023-04-24T01:48:46;7.97;;;4.40;;
73951;SDS011;62304;47.662;18.324;2023-04-24T01:51:49;13.33;;;5.13;;
73951;SDS011;62304;47.662;18.324;2023-04-24T01:54:52;6.60;;;4.07;;
73951;SDS011;62304;47.662;18.324;2023-04-24T01:57:55;7.65;;;5.18;;
73951;SDS011;62304;47.662;18.324;2023-04-24T02:00:59;8.75;;;4.47;;
73951;SDS011;62304;47.662;18.324;2023-04-24T02:04:03;7.37;;;4.32;;
73951;SDS011;62304;47.662;18.324;2023-04-24T02:07:09;6.83;;;3.50;;
73951;SDS011;62304;47.662;18.324;2023-04-24T02:10:12;7.20;;;3.92;;
73951;SDS011;62304;47.662;18.324;2023-04-24T02:13:16;7.65;;;3.60;;
73951;SDS011;62304;47.662;18.324;2023-04-24T02:16:18;6.75;;;4.32;;
73951;SDS011;62304;47.662;18.324;2023-04-24T02:19:22;6.62;;;4.65;;
73951;SDS011;62304;47.662;18.324;2023-04-24T02:22:25;7.97;;;4.40;;
73951;SDS011;62304;47.662;18.324;2023-04-24T02:25:28;8.00;;;4.95;;
73951;SDS011;62304;47.662;18.324;2023-04-24T02:28:31;9.85;;;4.20;;
73951;SDS011;62304;47.662;18.324;2023-04-24T02:31:33;7.35;;;3.75;;
73951;SDS011;62304;47.662;18.324;2023-04-24T02:34:37;6.70;;;3.55;;
73951;SDS011;62304;47.662;18.324;2023-04-24T02:37:40;7.77;;;3.80;;
73951;SDS011;62304;47.662;18.324;2023-04-24T02:40:46;7.15;;;4.55;;
73951;SDS011;62304;47.662;18.324;2023-04-24T02:43:49;7.55;;;4.20;;
73951;SDS011;62304;47.662;18.324;2023-04-24T02:46:51;10.40;;;3.92;;
73951;SDS011;62304;47.662;18.324;2023-04-24T02:49:54;12.48;;;4.65;;
73951;SDS011;62304;47.662;18.324;2023-04-24T02:52:57;9.27;;;4.40;;
73951;SDS011;62304;47.662;18.324;2023-04-24T02:56:00;8.65;;;4.80;;
73951;SDS011;62304;47.662;18.324;2023-04-24T02:59:03;7.72;;;4.20;;
73951;SDS011;62304;47.662;18.324;2023-04-24T03:02:06;7.05;;;3.87;;
73951;SDS011;62304;47.662;18.324;2023-04-24T03:05:09;9.50;;;4.57;;
73951;SDS011;62304;47.662;18.324;2023-04-24T03:08:14;8.10;;;4.23;;
73951;SDS011;62304;47.662;18.324;2023-04-24T03:11:18;15.68;;;5.93;;
73951;SDS011;62304;47.662;18.324;2023-04-24T03:14:22;7.60;;;4.53;;
73951;SDS011;62304;47.662;18.324;2023-04-24T03:17:24;10.40;;;4.87;;
73951;SDS011;62304;47.662;18.324;2023-04-24T03:20:28;6.18;;;3.53;;
73951;SDS011;62304;47.662;18.324;2023-04-24T03:23:31;9.00;;;4.67;;
73951;SDS011;62304;47.662;18.324;2023-04-24T03:26:34;7.80;;;4.40;;
73951;SDS011;62304;47.662;18.324;2023-04-24T03:29:48;8.60;;;4.78;;
73951;SDS011;62304;47.662;18.324;2023-04-24T03:32:57;8.57;;;4.35;;
73951;SDS011;62304;47.662;18.324;2023-04-24T03:36:00;9.68;;;4.62;;
73951;SDS011;62304;47.662;18.324;2023-04-24T03:39:06;11.13;;;4.87;;
73951;SDS011;62304;47.662;18.324;2023-04-24T03:42:11;10.57;;;4.53;;
73951;SDS011;62304;47.662;18.324;2023-04-24T03:45:15;9.23;;;5.15;;
73951;SDS011;62304;47.662;18.324;2023-04-24T03:48:19;10.02;;;4.43;;
73951;SDS011;62304;47.662;18.324;2023-04-24T03:51:22;12.60;;;5.30;;
73951;SDS011;62304;47.662;18.324;2023-04-24T03:54:25;7.63;;;4.60;;
73951;SDS011;62304;47.662;18.324;2023-04-24T03:57:29;9.60;;;5.40;;
73951;SDS011;62304;47.662;18.324;2023-04-24T04:00:32;13.05;;;5.55;;
73951;SDS011;62304;47.662;18.324;2023-04-24T04:03:37;9.07;;;5.03;;
73951;SDS011;62304;47.662;18.324;2023-04-24T04:06:40;8.25;;;4.20;;
73951;SDS011;62304;47.662;18.324;2023-04-24T04:09:43;7.73;;;4.10;;
73951;SDS011;62304;47.662;18.324;2023-04-24T04:12:47;9.80;;;4.85;;
73951;SDS011;62304;47.662;18.324;2023-04-24T04:15:49;9.10;;;5.12;;
73951;SDS011;62304;47.662;18.324;2023-04-24T04:18:52;5.87;;;3.42;;
73951;SDS011;62304;47.662;18.324;2023-04-24T04:21:55;9.02;;;4.28;;
73951;SDS011;62304;47.662;18.324;2023-04-24T04:24:59;8.97;;;5.80;;
73951;SDS011;62304;47.662;18.324;2023-04-24T04:28:04;9.77;;;4.37;;
73951;SDS011;62304;47.662;18.324;2023-04-24T04:31:06;8.73;;;5.18;;
73951;SDS011;62304;47.662;18.324;2023-04-24T04:34:10;9.63;;;5.72;;
73951;SDS011;62304;47.662;18.324;2023-04-24T04:37:14;11.02;;;4.97;;
73951;SDS011;62304;47.662;18.324;2023-04-24T04:40:18;7.90;;;4.60;;
73951;SDS011;62304;47.662;18.324;2023-04-24T04:43:23;8.38;;;5.35;;
73951;SDS011;62304;47.662;18.324;2023-04-24T04:46:28;10.27;;;6.00;;
73951;SDS011;62304;47.662;18.324;2023-04-24T04:49:34;12.15;;;5.82;;
73951;SDS011;62304;47.662;18.324;2023-04-24T04:52:38;11.70;;;4.03;;
73951;SDS011;62304;47.662;18.324;2023-04-24T04:55:41;11.83;;;5.43;;
73951;SDS011;62304;47.662;18.324;2023-04-24T04:58:45;10.55;;;3.55;;
73951;SDS011;62304;47.662;18.324;2023-04-24T05:01:48;11.95;;;5.50;;
73951;SDS011;62304;47.662;18.324;2023-04-24T05:04:51;10.07;;;5.37;;
73951;SDS011;62304;47.662;18.324;2023-04-24T05:07:54;7.20;;;4.07;;
73951;SDS011;62304;47.662;18.324;2023-04-24T05:10:57;9.97;;;5.17;;
73951;SDS011;62304;47.662;18.324;2023-04-24T05:14:00;10.85;;;5.45;;
73951;SDS011;62304;47.662;18.324;2023-04-24T05:17:04;13.60;;;5.68;;
73951;SDS011;62304;47.662;18.324;2023-04-24T05:20:07;9.98;;;5.78;;
73951;SDS011;62304;47.662;18.324;2023-04-24T05:23:11;9.68;;;4.97;;
73951;SDS011;62304;47.662;18.324;2023-04-24T05:26:14;7.50;;;4.00;;
73951;SDS011;62304;47.662;18.324;2023-04-24T05:29:18;12.30;;;5.65;;
73951;SDS011;62304;47.662;18.324;2023-04-24T05:32:21;11.35;;;4.37;;
73951;SDS011;62304;47.662;18.324;2023-04-24T05:35:24;9.40;;;4.62;;
73951;SDS011;62304;47.662;18.324;2023-04-24T05:38:27;12.52;;;5.12;;
73951;SDS011;62304;47.662;18.324;2023-04-24T05:41:30;7.80;;;4.17;;
73951;SDS011;62304;47.662;18.324;2023-04-24T05:44:33;9.63;;;5.30;;
73951;SDS011;62304;47.662;18.324;2023-04-24T05:47:36;9.57;;;5.10;;
73951;SDS011;62304;47.662;18.324;2023-04-24T05:50:39;9.45;;;4.45;;
73951;SDS011;62304;47.662;18.324;2023-04-24T05:53:42;8.07;;;4.45;;
73951;SDS011;62304;47.662;18.324;2023-04-24T05:56:46;9.57;;;5.00;;
73951;SDS011;62304;47.662;18.324;2023-04-24T05:59:49;8.82;;;5.35;;
73951;SDS011;62304;47.662;18.324;2023-04-24T06:02:52;11.12;;;5.70;;
73951;SDS011;62304;47.662;18.324;2023-04-24T06:05:56;7.30;;;3.80;;
73951;SDS011;62304;47.662;18.324;2023-04-24T06:08:59;9.45;;;4.68;;
73951;SDS011;62304;47.662;18.324;2023-04-24T06:12:02;9.53;;;4.00;;
73951;SDS011;62304;47.662;18.324;2023-04-24T06:15:07;9.65;;;5.60;;
73951;SDS011;62304;47.662;18.324;2023-04-24T06:18:12;9.00;;;5.00;;
73951;SDS011;62304;47.662;18.324;2023-04-24T06:21:16;10.30;;;6.00;;
73951;SDS011;62304;47.662;18.324;2023-04-24T06:24:19;13.80;;;5.65;;
73951;SDS011;62304;47.662;18.324;2023-04-24T06:27:21;9.90;;;5.67;;
73951;SDS011;62304;47.662;18.324;2023-04-24T06:30:24;13.77;;;5.18;;
73951;SDS011;62304;47.662;18.324;2023-04-24T06:33:27;13.30;;;6.72;;
73951;SDS011;62304;47.662;18.324;2023-04-24T06:36:33;10.93;;;4.90;;
73951;SDS011;62304;47.662;18.324;2023-04-24T06:39:37;12.00;;;5.68;;
73951;SDS011;62304;47.662;18.324;2023-04-24T06:42:40;11.27;;;5.53;;
73951;SDS011;62304;47.662;18.324;2023-04-24T06:45:42;16.05;;;6.70;;
73951;SDS011;62304;47.662;18.324;2023-04-24T06:48:46;9.60;;;5.53;;
73951;SDS011;62304;47.662;18.324;2023-04-24T06:51:48;9.82;;;4.28;;
73951;SDS011;62304;47.662;18.324;2023-04-24T06:54:52;10.52;;;5.68;;
73951;SDS011;62304;47.662;18.324;2023-04-24T06:57:54;13.93;;;5.80;;
73951;SDS011;62304;47.662;18.324;2023-04-24T07:00:57;20.65;;;8.68;;
73951;SDS011;62304;47.662;18.324;2023-04-24T07:04:00;13.50;;;5.22;;
73951;SDS011;62304;47.662;18.324;2023-04-24T07:07:04;7.28;;;3.92;;
73951;SDS011;62304;47.662;18.324;2023-04-24T07:10:08;9.40;;;5.35;;
73951;SDS011;62304;47.662;18.324;2023-04-24T07:13:12;9.47;;;5.20;;
73951;SDS011;62304;47.662;18.324;2023-04-24T07:16:14;7.70;;;4.15;;
73951;SDS011;62304;47.662;18.324;2023-04-24T07:19:17;9.13;;;4.85;;
73951;SDS011;62304;47.662;18.324;2023-04-24T07:22:20;7.20;;;3.87;;
73951;SDS011;62304;47.662;18.324;2023-04-24T07:25:23;10.80;;;5.18;;
73951;SDS011;62304;47.662;18.324;2023-04-24T07:28:26;9.00;;;5.23;;
73951;SDS011;62304;47.662;18.324;2023-04-24T07:31:29;8.15;;;4.82;;
73951;SDS011;62304;47.662;18.324;2023-04-24T07:34:32;9.98;;;4.53;;
73951;SDS011;62304;47.662;18.324;2023-04-24T07:37:35;9.75;;;4.68;;
73951;SDS011;62304;47.662;18.324;2023-04-24T07:40:38;10.23;;;4.53;;
73951;SDS011;62304;47.662;18.324;2023-04-24T07:43:41;9.23;;;4.00;;
73951;SDS011;62304;47.662;18.324;2023-04-24T07:46:44;8.73;;;3.92;;
73951;SDS011;62304;47.662;18.324;2023-04-24T07:49:47;7.18;;;4.95;;
73951;SDS011;62304;47.662;18.324;2023-04-24T07:52:50;7.40;;;3.28;;
73951;SDS011;62304;47.662;18.324;2023-04-24T07:55:54;6.10;;;3.60;;
73951;SDS011;62304;47.662;18.324;2023-04-24T07:58:59;5.13;;;3.33;;
73951;SDS011;62304;47.662;18.324;2023-04-24T08:02:03;9.80;;;3.55;;
73951;SDS011;62304;47.662;18.324;2023-04-24T08:05:07;7.15;;;4.03;;
73951;SDS011;62304;47.662;18.324;2023-04-24T08:08:10;5.28;;;3.40;;
73951;SDS011;62304;47.662;18.324;2023-04-24T08:11:13;6.32;;;2.95;;
73951;SDS011;62304;47.662;18.324;2023-04-24T08:14:16;6.80;;;3.70;;
73951;SDS011;62304;47.662;18.324;2023-04-24T08:17:19;7.30;;;3.95;;
73951;SDS011;62304;47.662;18.324;2023-04-24T08:20:22;6.95;;;4.18;;
73951;SDS011;62304;47.662;18.324;2023-04-24T08:23:25;7.00;;;4.30;;
73951;SDS011;62304;47.662;18.324;2023-04-24T08:26:27;7.10;;;3.75;;
73951;SDS011;62304;47.662;18.324;2023-04-24T08:29:30;6.97;;;4.03;;
73951;SDS011;62304;47.662;18.324;2023-04-24T08:32:33;8.25;;;4.18;;
73951;SDS011;62304;47.662;18.324;2023-04-24T08:35:36;7.53;;;3.97;;
73951;SDS011;62304;47.662;18.324;2023-04-24T08:38:39;6.80;;;4.20;;
73951;SDS011;62304;47.662;18.324;2023-04-24T08:41:44;7.43;;;3.85;;
73951;SDS011;62304;47.662;18.324;2023-04-24T08:44:48;9.27;;;4.33;;
73951;SDS011;62304;47.662;18.324;2023-04-24T08:47:53;8.55;;;4.70;;
73951;SDS011;62304;47.662;18.324;2023-04-24T08:51:00;8.57;;;4.95;;
73951;SDS011;62304;47.662;18.324;2023-04-24T08:54:04;8.63;;;5.12;;
73951;SDS011;62304;47.662;18.324;2023-04-24T08:57:07;6.97;;;4.43;;
73951;SDS011;62304;47.662;18.324;2023-04-24T09:00:13;7.23;;;4.13;;
73951;SDS011;62304;47.662;18.324;2023-04-24T09:03:17;10.10;;;4.62;;
73951;SDS011;62304;47.662;18.324;2023-04-24T09:06:21;9.18;;;5.10;;
73951;SDS011;62304;47.662;18.324;2023-04-24T09:09:24;8.80;;;4.78;;
73951;SDS011;62304;47.662;18.324;2023-04-24T09:12:28;8.85;;;4.70;;
73951;SDS011;62304;47.662;18.324;2023-04-24T09:15:31;7.07;;;4.77;;
73951;SDS011;62304;47.662;18.324;2023-04-24T09:18:34;7.57;;;4.57;;
73951;SDS011;62304;47.662;18.324;2023-04-24T09:21:37;8.30;;;3.60;;
73951;SDS011;62304;47.662;18.324;2023-04-24T09:24:40;9.75;;;2.90;;
73951;SDS011;62304;47.662;18.324;2023-04-24T09:27:43;6.40;;;3.20;;
73951;SDS011;62304;47.662;18.324;2023-04-24T09:30:51;5.90;;;2.73;;
73951;SDS011;62304;47.662;18.324;2023-04-24T09:34:22;5.57;;;3.37;;
73951;SDS011;62304;47.662;18.324;2023-04-24T09:37:29;6.50;;;3.40;;
73951;SDS011;62304;47.662;18.324;2023-04-24T09:40:33;5.75;;;2.78;;
73951;SDS011;62304;47.662;18.324;2023-04-24T09:43:37;6.18;;;2.80;;
73951;SDS011;62304;47.662;18.324;2023-04-24T09:46:40;7.27;;;4.57;;
73951;SDS011;62304;47.662;18.324;2023-04-24T09:49:44;5.68;;;2.65;;
73951;SDS011;62304;47.662;18.324;2023-04-24T09:52:55;6.05;;;3.12;;
73951;SDS011;62304;47.662;18.324;2023-04-24T09:56:06;4.37;;;2.35;;
73951;SDS011;62304;47.662;18.324;2023-04-24T09:59:12;7.40;;;2.65;;
73951;SDS011;62304;47.662;18.324;2023-04-24T10:02:19;4.10;;;2.00;;
73951;SDS011;62304;47.662;18.324;2023-04-24T10:05:24;4.82;;;2.22;;
73951;SDS011;62304;47.662;18.324;2023-04-24T10:08:35;4.62;;;1.90;;
73951;SDS011;62304;47.662;18.324;2023-04-24T10:11:43;6.15;;;2.17;;
73951;SDS011;62304;47.662;18.324;2023-04-24T10:14:48;7.25;;;3.22;;
73951;SDS011;62304;47.662;18.324;2023-04-24T10:17:51;4.50;;;2.20;;
73951;SDS011;62304;47.662;18.324;2023-04-24T10:20:54;4.00;;;2.05;;
73951;SDS011;62304;47.662;18.324;2023-04-24T10:23:58;7.03;;;2.95;;
73951;SDS011;62304;47.662;18.324;2023-04-24T10:27:02;6.30;;;2.80;;
73951;SDS011;62304;47.662;18.324;2023-04-24T10:30:07;5.10;;;2.60;;
73951;SDS011;62304;47.662;18.324;2023-04-24T10:33:11;5.27;;;2.40;;
73951;SDS011;62304;47.662;18.324;2023-04-24T10:36:15;12.82;;;5.53;;
73951;SDS011;62304;47.662;18.324;2023-04-24T10:39:19;6.03;;;3.30;;
73951;SDS011;62304;47.662;18.324;2023-04-24T10:42:29;25.83;;;10.57;;
73951;SDS011;62304;47.662;18.324;2023-04-24T10:45:32;7.12;;;3.50;;
73951;SDS011;62304;47.662;18.324;2023-04-24T10:48:35;10.70;;;3.63;;
73951;SDS011;62304;47.662;18.324;2023-04-24T10:54:47;6.47;;;4.00;;
73951;SDS011;62304;47.662;18.324;2023-04-24T10:58:01;6.47;;;3.95;;
73951;SDS011;62304;47.662;18.324;2023-04-24T11:01:07;8.55;;;4.10;;
73951;SDS011;62304;47.662;18.324;2023-04-24T11:04:10;7.50;;;4.03;;
73951;SDS011;62304;47.662;18.324;2023-04-24T11:07:13;6.97;;;4.07;;
73951;SDS011;62304;47.662;18.324;2023-04-24T11:10:28;6.62;;;3.80;;
73951;SDS011;62304;47.662;18.324;2023-04-24T11:16:55;7.85;;;4.30;;
73951;SDS011;62304;47.662;18.324;2023-04-24T11:20:03;7.40;;;4.47;;
73951;SDS011;62304;47.662;18.324;2023-04-24T11:23:26;8.07;;;4.65;;
73951;SDS011;62304;47.662;18.324;2023-04-24T11:26:29;7.70;;;4.37;;
73951;SDS011;62304;47.662;18.324;2023-04-24T11:29:45;6.80;;;3.78;;
73951;SDS011;62304;47.662;18.324;2023-04-24T11:32:50;8.13;;;4.28;;
73951;SDS011;62304;47.662;18.324;2023-04-24T11:35:53;8.03;;;4.27;;
73951;SDS011;62304;47.662;18.324;2023-04-24T11:38:56;8.15;;;4.93;;
73951;SDS011;62304;47.662;18.324;2023-04-24T11:42:03;7.78;;;4.50;;
73951;SDS011;62304;47.662;18.324;2023-04-24T11:45:09;7.05;;;4.45;;
73951;SDS011;62304;47.662;18.324;2023-04-24T11:48:19;8.27;;;4.70;;
73951;SDS011;62304;47.662;18.324;2023-04-24T11:51:26;6.87;;;4.10;;
73951;SDS011;62304;47.662;18.324;2023-04-24T11:54:37;7.90;;;4.03;;
73951;SDS011;62304;47.662;18.324;2023-04-24T11:57:51;11.18;;;4.57;;
73951;SDS011;62304;47.662;18.324;2023-04-24T12:00:56;8.00;;;4.25;;
73951;SDS011;62304;47.662;18.324;2023-04-24T12:04:01;7.15;;;3.53;;
73951;SDS011;62304;47.662;18.324;2023-04-24T12:07:04;8.63;;;4.60;;
73951;SDS011;62304;47.662;18.324;2023-04-24T12:10:08;7.80;;;4.43;;
73951;SDS011;62304;47.662;18.324;2023-04-24T12:13:11;5.85;;;2.92;;
73951;SDS011;62304;47.662;18.324;2023-04-24T12:16:15;7.40;;;3.70;;
73951;SDS011;62304;47.662;18.324;2023-04-24T12:19:22;7.03;;;3.75;;
73951;SDS011;62304;47.662;18.324;2023-04-24T12:22:25;7.80;;;3.40;;
73951;SDS011;62304;47.662;18.324;2023-04-24T12:25:29;8.60;;;3.60;;
73951;SDS011;62304;47.662;18.324;2023-04-24T12:28:38;6.70;;;3.33;;
73951;SDS011;62304;47.662;18.324;2023-04-24T12:31:53;7.10;;;3.23;;
73951;SDS011;62304;47.662;18.324;2023-04-24T12:34:57;7.12;;;3.92;;
73951;SDS011;62304;47.662;18.324;2023-04-24T12:38:07;6.72;;;3.15;;
73951;SDS011;62304;47.662;18.324;2023-04-24T12:41:11;8.30;;;3.30;;
73951;SDS011;62304;47.662;18.324;2023-04-24T12:44:15;6.37;;;3.70;;
73951;SDS011;62304;47.662;18.324;2023-04-24T12:47:18;6.60;;;3.10;;
73951;SDS011;62304;47.662;18.324;2023-04-24T12:50:21;4.87;;;1.98;;
73951;SDS011;62304;47.662;18.324;2023-04-24T12:53:25;5.40;;;3.00;;
73951;SDS011;62304;47.662;18.324;2023-04-24T12:56:29;7.90;;;3.63;;
73951;SDS011;62304;47.662;18.324;2023-04-24T12:59:33;6.83;;;3.60;;
73951;SDS011;62304;47.662;18.324;2023-04-24T13:02:36;5.30;;;3.33;;
73951;SDS011;62304;47.662;18.324;2023-04-24T13:05:41;6.55;;;3.03;;
73951;SDS011;62304;47.662;18.324;2023-04-24T13:08:46;7.25;;;4.30;;
73951;SDS011;62304;47.662;18.324;2023-04-24T13:11:50;5.93;;;3.00;;
73951;SDS011;62304;47.662;18.324;2023-04-24T13:14:53;4.10;;;1.93;;
73951;SDS011;62304;47.662;18.324;2023-04-24T13:17:56;5.90;;;3.10;;
73951;SDS011;62304;47.662;18.324;2023-04-24T13:20:59;4.72;;;2.62;;
73951;SDS011;62304;47.662;18.324;2023-04-24T13:24:02;4.93;;;2.30;;
73951;SDS011;62304;47.662;18.324;2023-04-24T13:27:07;6.17;;;3.00;;
73951;SDS011;62304;47.662;18.324;2023-04-24T13:30:12;5.73;;;3.00;;
73951;SDS011;62304;47.662;18.324;2023-04-24T13:33:20;5.20;;;2.78;;
73951;SDS011;62304;47.662;18.324;2023-04-24T13:36:23;4.65;;;1.50;;
73951;SDS011;62304;47.662;18.324;2023-04-24T13:39:25;7.55;;;2.30;;
73951;SDS011;62304;47.662;18.324;2023-04-24T13:42:29;5.93;;;2.63;;
73951;SDS011;62304;47.662;18.324;2023-04-24T13:45:31;3.70;;;1.60;;
73951;SDS011;62304;47.662;18.324;2023-04-24T13:48:37;4.45;;;1.87;;
73951;SDS011;62304;47.662;18.324;2023-04-24T13:51:40;3.45;;;1.33;;
73951;SDS011;62304;47.662;18.324;2023-04-24T13:54:44;4.32;;;2.33;;
73951;SDS011;62304;47.662;18.324;2023-04-24T13:57:46;7.23;;;3.90;;
73951;SDS011;62304;47.662;18.324;2023-04-24T14:00:49;5.03;;;2.77;;
73951;SDS011;62304;47.662;18.324;2023-04-24T14:03:52;3.00;;;0.90;;
73951;SDS011;62304;47.662;18.324;2023-04-24T14:06:58;3.12;;;1.35;;
73951;SDS011;62304;47.662;18.324;2023-04-24T14:10:01;5.40;;;1.60;;
73951;SDS011;62304;47.662;18.324;2023-04-24T14:13:04;6.80;;;1.70;;
73951;SDS011;62304;47.662;18.324;2023-04-24T14:16:08;6.13;;;1.90;;
73951;SDS011;62304;47.662;18.324;2023-04-24T14:19:10;4.75;;;1.85;;
73951;SDS011;62304;47.662;18.324;2023-04-24T14:22:13;4.57;;;1.70;;
73951;SDS011;62304;47.662;18.324;2023-04-24T14:25:16;4.47;;;1.90;;
73951;SDS011;62304;47.662;18.324;2023-04-24T14:28:19;6.43;;;1.73;;
73951;SDS011;62304;47.662;18.324;2023-04-24T14:31:23;10.20;;;4.07;;
73951;SDS011;62304;47.662;18.324;2023-04-24T14:34:26;7.28;;;3.17;;
73951;SDS011;62304;47.662;18.324;2023-04-24T14:37:28;7.70;;;3.33;;
73951;SDS011;62304;47.662;18.324;2023-04-24T14:40:32;5.07;;;2.40;;
73951;SDS011;62304;47.662;18.324;2023-04-24T14:43:37;5.27;;;2.70;;
73951;SDS011;62304;47.662;18.324;2023-04-24T14:46:41;4.77;;;2.17;;
73951;SDS011;62304;47.662;18.324;2023-04-24T14:49:44;4.72;;;2.53;;
73951;SDS011;62304;47.662;18.324;2023-04-24T14:52:49;5.07;;;2.47;;
73951;SDS011;62304;47.662;18.324;2023-04-24T14:55:53;6.60;;;2.60;;
73951;SDS011;62304;47.662;18.324;2023-04-24T14:58:57;4.40;;;2.07;;
73951;SDS011;62304;47.662;18.324;2023-04-24T15:01:59;5.63;;;2.13;;
73951;SDS011;62304;47.662;18.324;2023-04-24T15:05:17;4.65;;;2.42;;
73951;SDS011;62304;47.662;18.324;2023-04-24T15:08:21;4.25;;;2.20;;
73951;SDS011;62304;47.662;18.324;2023-04-24T15:11:24;4.50;;;2.12;;
73951;SDS011;62304;47.662;18.324;2023-04-24T15:14:28;5.93;;;1.90;;
73951;SDS011;62304;47.662;18.324;2023-04-24T15:17:32;6.80;;;2.80;;
73951;SDS011;62304;47.662;18.324;2023-04-24T15:20:35;4.82;;;2.70;;
73951;SDS011;62304;47.662;18.324;2023-04-24T15:23:40;4.80;;;2.75;;
73951;SDS011;62304;47.662;18.324;2023-04-24T15:26:43;4.90;;;2.70;;
73951;SDS011;62304;47.662;18.324;2023-04-24T15:29:45;5.67;;;2.73;;
73951;SDS011;62304;47.662;18.324;2023-04-24T15:32:49;4.97;;;3.20;;
73951;SDS011;62304;47.662;18.324;2023-04-24T15:35:51;6.45;;;3.05;;
73951;SDS011;62304;47.662;18.324;2023-04-24T15:38:54;5.68;;;3.28;;
73951;SDS011;62304;47.662;18.324;2023-04-24T15:41:57;6.57;;;3.35;;
73951;SDS011;62304;47.662;18.324;2023-04-24T15:45:01;6.97;;;3.93;;
73951;SDS011;62304;47.662;18.324;2023-04-24T15:48:04;7.50;;;3.70;;
73951;SDS011;62304;47.662;18.324;2023-04-24T15:51:07;6.68;;;3.22;;
73951;SDS011;62304;47.662;18.324;2023-04-24T15:54:10;4.55;;;1.83;;
73951;SDS011;62304;47.662;18.324;2023-04-24T15:57:13;6.53;;;3.00;;
73951;SDS011;62304;47.662;18.324;2023-04-24T16:00:17;9.10;;;3.83;;
73951;SDS011;62304;47.662;18.324;2023-04-24T16:03:20;9.50;;;5.10;;
73951;SDS011;62304;47.662;18.324;2023-04-24T16:06:24;6.20;;;3.47;;
73951;SDS011;62304;47.662;18.324;2023-04-24T16:09:28;4.65;;;2.42;;
73951;SDS011;62304;47.662;18.324;2023-04-24T16:12:30;5.43;;;2.83;;
73951;SDS011;62304;47.662;18.324;2023-04-24T16:15:34;5.67;;;2.80;;
73951;SDS011;62304;47.662;18.324;2023-04-24T16:18:40;6.47;;;2.80;;
73951;SDS011;62304;47.662;18.324;2023-04-24T16:21:44;6.03;;;2.80;;
73951;SDS011;62304;47.662;18.324;2023-04-24T16:24:46;4.97;;;2.40;;
73951;SDS011;62304;47.662;18.324;2023-04-24T16:27:49;4.90;;;2.60;;
73951;SDS011;62304;47.662;18.324;2023-04-24T16:30:54;5.27;;;2.70;;
73951;SDS011;62304;47.662;18.324;2023-04-24T16:33:57;6.13;;;3.17;;
73951;SDS011;62304;47.662;18.324;2023-04-24T16:37:00;11.73;;;4.35;;
73951;SDS011;62304;47.662;18.324;2023-04-24T16:40:03;6.62;;;3.45;;
73951;SDS011;62304;47.662;18.324;2023-04-24T16:43:12;7.93;;;3.30;;
73951;SDS011;62304;47.662;18.324;2023-04-24T16:46:15;6.90;;;3.77;;
73951;SDS011;62304;47.662;18.324;2023-04-24T16:49:18;7.43;;;3.43;;
73951;SDS011;62304;47.662;18.324;2023-04-24T16:52:21;6.25;;;3.62;;
73951;SDS011;62304;47.662;18.324;2023-04-24T16:55:24;6.82;;;3.70;;
73951;SDS011;62304;47.662;18.324;2023-04-24T16:58:28;6.60;;;3.60;;
73951;SDS011;62304;47.662;18.324;2023-04-24T17:01:31;7.03;;;3.80;;
73951;SDS011;62304;47.662;18.324;2023-04-24T17:04:34;8.10;;;4.20;;
73951;SDS011;62304;47.662;18.324;2023-04-24T17:07:37;7.57;;;4.07;;
73951;SDS011;62304;47.662;18.324;2023-04-24T17:10:41;7.87;;;4.20;;
73951;SDS011;62304;47.662;18.324;2023-04-24T17:13:43;8.82;;;5.25;;
73951;SDS011;62304;47.662;18.324;2023-04-24T17:16:47;8.80;;;4.67;;
73951;SDS011;62304;47.662;18.324;2023-04-24T17:19:51;8.00;;;4.67;;
73951;SDS011;62304;47.662;18.324;2023-04-24T17:22:55;9.48;;;4.82;;
73951;SDS011;62304;47.662;18.324;2023-04-24T17:25:58;9.52;;;4.78;;
73951;SDS011;62304;47.662;18.324;2023-04-24T17:29:02;8.82;;;4.90;;
73951;SDS011;62304;47.662;18.324;2023-04-24T17:32:05;9.20;;;5.27;;
73951;SDS011;62304;47.662;18.324;2023-04-24T17:35:10;8.53;;;4.93;;
73951;SDS011;62304;47.662;18.324;2023-04-24T17:38:13;9.02;;;4.60;;
73951;SDS011;62304;47.662;18.324;2023-04-24T17:41:17;10.43;;;5.50;;
73951;SDS011;62304;47.662;18.324;2023-04-24T17:44:20;8.55;;;4.37;;
73951;SDS011;62304;47.662;18.324;2023-04-24T17:47:24;9.10;;;5.50;;
73951;SDS011;62304;47.662;18.324;2023-04-24T17:50:28;9.13;;;5.20;;
73951;SDS011;62304;47.662;18.324;2023-04-24T17:53:32;8.88;;;4.95;;
73951;SDS011;62304;47.662;18.324;2023-04-24T17:56:36;7.68;;;4.60;;
73951;SDS011;62304;47.662;18.324;2023-04-24T17:59:40;8.43;;;4.40;;
73951;SDS011;62304;47.662;18.324;2023-04-24T18:02:43;10.20;;;5.17;;
73951;SDS011;62304;47.662;18.324;2023-04-24T18:05:47;6.90;;;4.40;;
73951;SDS011;62304;47.662;18.324;2023-04-24T18:08:50;7.45;;;4.18;;
73951;SDS011;62304;47.662;18.324;2023-04-24T18:11:53;6.95;;;4.00;;
73951;SDS011;62304;47.662;18.324;2023-04-24T18:14:58;7.90;;;4.43;;
73951;SDS011;62304;47.662;18.324;2023-04-24T18:18:15;7.10;;;4.17;;